Date,TemperatureHighF,TemperatureAvgF,TemperatureLowF,DewpointHighF,DewpointAvgF,DewpointLowF,HumidityHigh,HumidityAvg,HumidityLow,PressureMaxIn,PressureMinIn,WindSpeedMaxMPH,WindSpeedAvgMPH,GustSpeedMaxMPH,PrecipitationSumIn
2013-1-1,30,20,13,13,7,0,83,59,37,0.00,40.00,0,-999,0,0.00
2013-1-2,31,22,16,14,5,-1,67,48,24,0.00,40.00,0,-999,0,0.00
2013-1-3,34,24,14,5,-2,-7,57,30,13,0.00,40.00,0,-999,0,0.00
2013-1-4,46,33,26,12,1,-7,44,22,10,0.00,40.00,0,-999,0,0.00
2013-1-5,37,31,23,15,9,2,55,39,29,0.00,40.00,0,-999,0,0.00
2013-1-6,56,40,28,20,4,-8,56,21,5,0.00,40.00,0,-999,0,0.00
2013-1-7,50,42,31,11,5,0,35,19,10,0.00,40.00,0,-999,0,0.00
2013-1-8,51,43,35,18,9,-4,41,24,10,0.00,40.00,0,-999,0,0.00
2013-1-9,57,43,34,18,12,6,40,27,10,0.00,40.00,0,-999,0,0.00
2013-1-10,53,46,37,14,6,-10,28,17,5,0.00,40.00,0,-999,0,0.00
2013-1-11,46,29,12,25,14,1,91,60,21,0.00,40.00,0,-999,0,0.00
2013-1-12,17,5,-4,2,-3,-9,82,71,34,0.00,40.00,0,-999,0,0.00
2013-1-13,12,5,-1,2,-2,-8,88,74,57,0.00,40.00,0,-999,0,0.00
2013-1-14,10,5,0,2,-1,-5,84,78,65,0.00,40.00,0,-999,0,0.00
2013-1-15,34,19,0,16,1,-11,81,46,28,0.00,40.00,0,-999,0,0.00
2013-1-16,49,37,29,21,15,9,58,41,25,0.00,40.00,0,-999,0,0.00
2013-1-17,49,38,28,23,15,9,56,40,24,0.00,40.00,0,-999,0,0.00
2013-1-18,56,44,38,13,4,-9,33,17,5,0.00,40.00,0,-999,0,0.00
2013-1-19,58,46,32,9,1,-31,28,14,1,0.00,40.00,0,-999,0,0.00
2013-1-20,46,36,26,15,9,-2,62,33,15,0.00,40.00,0,-999,0,0.00
2013-1-21,54,41,26,15,7,-9,64,28,7,0.00,40.00,0,-999,0,0.00
2013-1-22,61,49,41,4,-9,-46,12,7,1,0.00,40.00,0,-999,0,0.00
2013-1-23,63,51,43,11,-14,-52,25,7,1,0.00,40.00,0,-999,0,0.00
2013-1-24,64,50,40,25,8,-10,45,19,5,0.00,40.00,0,-999,0,0.00
2013-1-25,56,45,34,25,21,18,56,39,23,0.00,40.00,0,-999,0,0.00
2013-1-26,53,45,38,33,25,19,79,47,28,0.00,40.00,0,-999,0,0.00
2013-1-27,56,45,33,35,28,12,95,58,18,0.00,40.00,0,-999,0,0.00
2013-1-28,57,41,26,28,21,13,93,51,19,0.00,40.00,0,-999,0,0.00
2013-1-29,28,23,18,24,14,5,96,71,40,0.00,40.00,0,-999,0,0.00
2013-1-30,36,26,11,14,8,1,85,48,30,0.00,40.00,0,-999,0,0.00
2013-1-31,44,36,23,21,14,9,77,42,21,0.00,40.00,0,-999,0,0.00
2013-2-1,48,38,26,21,13,8,59,36,18,0.00,40.00,0,-999,0,0.00
2013-2-2,56,39,30,20,12,-8,64,36,5,0.00,40.00,0,-999,0,0.00
2013-2-3,54,43,30,15,5,-45,52,22,3,0.00,40.00,0,-999,0,0.00
2013-2-4,53,42,32,11,5,-6,34,20,6,0.00,40.00,0,-999,0,0.00
2013-2-5,58,46,37,16,10,3,31,21,9,0.00,40.00,0,-999,0,0.00
2013-2-6,58,44,32,32,19,11,94,41,17,0.00,40.00,0,-999,0,0.00
2013-2-7,45,35,25,30,22,10,94,64,21,0.00,40.00,0,-999,0,0.00
2013-2-8,52,42,32,19,15,11,50,33,18,0.00,40.00,0,-999,0,0.00
2013-2-9,39,30,22,26,19,13,88,66,37,0.00,40.00,0,-999,0,0.00
2013-2-10,32,25,18,20,13,7,83,63,35,0.00,40.00,0,-999,0,0.00
2013-2-11,29,21,13,16,11,7,84,66,44,0.00,40.00,0,-999,0,0.00
2013-2-12,38,29,19,15,2,-9,80,35,10,0.00,40.00,0,-999,0,0.00
2013-2-13,45,35,26,13,6,-4,44,28,20,0.00,40.00,0,-999,0,0.00
2013-2-14,36,26,19,22,16,9,85,67,37,0.00,40.00,20,-726,24,0.00
2013-2-15,33,25,17,16,12,8,77,61,34,0.00,40.00,18,-101,28,0.00
2013-2-19,45,37,30,16,9,5,41,29,17,0.00,40.00,16,-319,22,0.00
2013-2-20,34,25,18,28,18,6,92,76,44,0.00,40.00,13,-292,20,0.00
2013-2-21,22,16,12,16,13,9,95,86,77,0.00,40.00,11,-280,17,0.00
2013-2-22,29,22,16,17,14,10,84,71,51,0.00,40.00,13,-461,16,0.00
2013-2-23,42,31,21,24,13,1,78,49,23,0.00,40.00,14,-334,21,0.00
2013-2-24,29,25,21,26,23,18,94,92,78,0.00,40.00,22,-142,35,0.00
2013-2-25,35,23,13,19,10,-3,97,61,21,0.00,40.00,8,-399,12,0.00
2013-2-26,28,24,21,24,16,6,94,74,37,0.00,40.00,22,-74,31,0.00
2013-2-27,35,25,18,21,9,2,92,54,24,0.00,40.00,17,-307,20,0.00
2013-2-28,46,30,20,14,5,-2,50,33,10,0.00,40.00,16,-278,24,0.00
2013-3-1,42,34,26,23,15,10,63,47,30,0.00,40.00,10,-371,14,0.00
2013-3-2,58,46,37,25,19,15,46,34,19,0.00,40.00,10,-594,14,0.00
2013-3-3,56,49,41,26,18,13,45,28,21,0.00,40.00,14,-244,24,0.00
2013-3-4,46,29,19,27,18,6,95,65,33,0.00,40.00,20,-90,30,0.00
2013-3-5,41,28,13,24,14,2,75,56,34,0.00,40.00,10,-225,15,0.00
2013-3-6,54,43,25,27,18,5,74,39,12,0.00,40.00,17,-56,23,0.00
2013-3-7,61,52,41,26,17,10,47,24,12,0.00,40.00,18,-128,25,0.00
2013-3-8,48,38,33,34,28,19,90,68,35,0.00,40.00,11,-433,13,0.00
2013-3-9,33,23,23,31,22,-3,98,85,65,0.00,40.00,24,-92,41,0.00
2013-3-10,40,28,20,22,16,11,79,61,41,0.00,40.00,11,-103,23,0.00
2013-3-11,47,39,30,31,19,12,94,48,25,0.00,40.00,19,-210,34,0.00
2013-3-12,41,28,23,30,23,-2,94,78,51,0.00,40.00,13,-82,19,0.00
2013-3-13,61,49,31,28,21,15,76,35,19,0.00,40.00,12,-198,17,0.00
2013-3-14,69,56,45,27,20,15,31,23,13,0.00,40.00,12,-399,15,0.00
2013-3-15,69,58,51,22,18,15,25,19,15,0.00,40.00,14,-340,19,0.00
2013-3-18,47,41,37,14,7,-100,28,20,16,0.00,40.00,23,-38,33,0.00
2013-3-19,49,38,27,17,9,-2,67,31,9,0.00,40.00,16,-175,24,0.00
2013-3-20,58,39,21,23,14,3,76,41,9,0.00,40.00,10,-162,15,0.00
2013-3-21,56,44,33,33,21,9,72,39,26,0.00,40.00,22,-36,38,0.00
2013-3-22,47,34,26,28,19,11,94,59,28,0.00,40.00,25,-141,36,0.00
2013-3-23,26,16,14,24,15,9,94,89,86,0.00,40.00,20,-96,28,0.00
2013-3-24,26,17,11,15,6,0,89,63,40,0.00,40.00,8,-393,14,0.00
2013-3-25,34,21,10,17,7,-4,92,58,25,0.00,40.00,8,-344,16,0.00
2013-3-26,48,33,24,29,17,6,81,48,26,0.00,40.00,14,-295,22,0.00
2013-3-27,52,40,30,33,26,22,80,61,37,0.00,40.00,17,-254,22,0.00
2013-3-28,60,46,37,32,26,22,70,44,24,0.00,40.00,14,-132,30,0.00
2013-3-29,63,53,45,29,24,16,51,33,15,0.00,40.00,13,-118,27,0.00
2013-3-30,63,50,40,37,25,-100,83,43,13,0.00,40.00,24,-222,37,0.00
2013-3-31,66,50,37,34,25,5,82,43,8,0.00,40.00,13,-265,24,0.00
2013-4-1,56,44,31,32,28,22,84,55,31,0.00,40.00,18,-222,30,0.00
2013-4-2,40,34,35,36,32,30,98,84,69,0.00,40.00,11,-257,16,0.00
2013-4-3,56,36,36,39,28,16,99,61,16,0.00,40.00,8,-220,12,0.00
2013-4-4,64,50,41,29,22,15,57,31,13,0.00,40.00,13,-227,20,0.00
2013-4-5,71,60,51,31,21,14,45,22,13,0.00,40.00,24,-89,46,0.00
2013-4-6,61,52,41,35,22,15,57,31,15,0.00,40.00,23,-218,32,0.00
2013-4-7,63,52,39,35,24,13,80,38,14,0.00,40.00,19,-175,33,0.00
2013-4-8,67,50,27,35,21,7,91,38,12,0.00,40.00,106,-182,106,0.00
2013-4-9,27,15,8,24,12,4,94,88,85,0.00,40.00,0,-999,0,0.00
2013-4-10,25,15,6,15,8,2,91,77,62,0.00,40.00,22,-747,22,0.00
2013-4-11,50,38,25,34,23,11,84,57,38,0.00,40.00,22,-145,33,0.00
2013-4-12,57,39,34,34,29,13,89,70,17,0.00,40.00,25,-258,36,0.00
2013-4-13,68,49,34,33,24,9,90,43,8,0.00,40.00,16,-156,28,0.00
2013-4-14,51,41,33,36,20,5,97,48,15,0.00,40.00,25,-142,40,0.00
2013-4-15,37,30,23,29,21,10,98,73,31,0.00,40.00,16,-5,29,0.00
2013-4-16,43,28,23,30,25,20,95,81,53,0.00,40.00,22,13,32,0.00
2013-4-17,30,26,19,28,23,16,98,91,84,0.00,40.00,24,-544,34,0.00
2013-4-18,33,24,14,19,13,8,91,65,41,0.00,40.00,14,-146,24,0.00
2013-4-19,53,40,28,23,13,8,47,33,18,0.00,40.00,15,-251,26,0.00
2013-4-20,56,46,39,34,23,17,62,40,25,0.00,40.00,9,-350,18,0.00
2013-4-21,60,47,40,35,24,14,72,41,15,0.00,40.00,12,-216,24,0.00
2013-4-22,51,35,22,35,26,19,93,71,39,0.00,40.00,23,-73,33,0.00
2013-4-23,31,21,20,20,16,11,95,73,48,0.00,40.00,12,-460,14,0.00
2013-4-24,51,38,27,23,15,9,67,40,18,0.00,40.00,15,-356,24,0.00
2013-4-25,63,50,39,27,18,9,43,28,10,0.00,40.00,14,-344,21,0.00
2013-4-26,62,53,41,25,19,11,45,26,12,0.00,40.00,10,-580,16,0.00
2013-4-27,70,58,47,26,20,13,43,22,13,0.00,40.00,12,-258,21,0.00
2013-4-28,75,64,52,35,22,12,35,18,13,0.00,40.00,14,-355,28,0.00
2013-4-29,77,64,47,33,28,14,56,27,12,0.00,40.00,12,-97,22,0.00
2013-4-30,67,53,39,54,30,10,88,44,12,0.00,40.00,17,-151,30,0.00
2013-5-1,39,31,23,35,28,21,99,90,76,0.00,40.00,104,-334,88,0.00
2013-5-2,43,30,23,22,18,11,93,58,28,0.00,40.00,9,-219,15,0.00
2013-5-3,54,42,34,25,19,14,58,41,19,0.00,40.00,10,-590,13,0.00
2013-5-4,56,51,41,29,24,21,52,36,25,0.00,40.00,13,-169,20,0.00
2013-5-5,59,48,39,28,19,13,51,32,17,0.00,40.00,14,-21,36,0.00
2013-5-6,63,51,42,35,26,16,56,34,26,0.00,40.00,11,-91,25,0.00
2013-5-7,66,55,47,42,34,25,83,48,21,0.00,40.00,13,-126,26,0.00
2013-5-8,60,48,44,44,39,32,92,73,44,0.00,40.00,16,-181,27,0.00
2013-5-9,55,39,45,45,41,34,93,78,45,0.00,40.00,17,-190,33,0.00
2013-5-10,62,50,41,40,33,-100,75,57,28,0.00,40.00,61,-175,23,0.00
2013-5-11,66,54,44,42,35,-100,76,53,20,0.00,40.00,11,-176,28,0.00
2013-5-12,74,64,52,39,32,25,53,30,20,0.00,40.00,11,-261,20,0.00
2013-5-13,81,71,60,41,33,27,30,25,20,0.00,40.00,11,-316,16,0.00
2013-5-14,82,71,64,41,34,29,39,26,14,0.00,40.00,18,-390,30,0.00
2013-5-15,78,66,55,48,38,32,78,38,21,0.00,40.00,17,-115,26,0.00
2013-5-16,78,60,55,47,28,-100,75,41,16,0.00,40.00,11,-148,22,0.00
2013-5-17,83,70,58,46,30,-100,60,29,7,0.00,40.00,13,-216,27,0.00
2013-5-18,73,65,53,51,27,5,56,24,9,0.00,40.00,42,-76,33,0.00
2013-5-19,66,56,41,39,32,19,64,42,16,0.00,40.00,15,-119,27,0.00
2013-5-20,61,51,46,45,37,28,86,62,30,0.00,40.00,14,-231,30,0.00
2013-5-21,66,53,47,39,31,25,73,43,21,0.00,40.00,14,-219,21,0.00
2013-5-22,74,59,45,45,34,27,70,42,22,0.00,40.00,15,-259,23,0.00
2013-5-23,65,55,45,45,42,40,91,64,42,0.00,40.00,20,-122,33,0.00
2013-5-24,84,64,55,51,39,11,76,44,6,0.00,40.00,17,-60,32,0.00
2013-5-25,85,71,57,53,38,10,84,39,6,0.00,40.00,105,-125,42,0.00
2013-5-26,82,71,63,41,30,13,39,23,7,0.00,40.00,16,-118,37,0.00
2013-5-27,81,70,58,50,32,18,56,27,13,0.00,40.00,13,-14,21,0.00
2013-5-28,79,66,51,48,36,27,64,36,18,0.00,40.00,16,-125,31,0.00
2013-5-29,68,55,50,48,40,27,87,59,33,0.00,40.00,20,9,33,0.00
2013-5-30,66,58,49,31,24,15,45,28,13,0.00,40.00,27,-113,43,0.00
2013-5-31,70,59,48,30,20,7,46,22,8,0.00,40.00,24,-171,41,0.00
2013-6-1,65,55,45,38,31,15,68,41,16,0.00,40.00,18,-284,27,0.00
2013-6-2,81,66,50,37,32,23,54,31,11,0.00,40.00,12,-209,23,0.00
2013-6-3,88,76,64,35,29,20,24,17,9,0.00,40.00,16,-327,31,0.00
2013-6-4,73,61,49,50,40,17,85,50,16,0.00,40.00,16,-216,28,0.00
2013-6-5,56,48,45,47,43,41,92,81,62,0.00,40.00,16,-127,28,0.00
2013-6-6,75,62,47,45,39,33,85,49,21,0.00,40.00,10,-315,27,0.00
2013-6-7,81,67,55,43,36,29,54,34,15,0.00,40.00,16,-248,28,0.00
2013-6-8,72,66,59,48,36,29,56,33,25,0.00,40.00,18,-319,25,0.00
2013-6-9,88,71,54,41,36,24,56,29,11,0.00,40.00,12,-447,25,0.00
2013-6-10,95,82,70,41,34,19,25,17,11,0.00,40.00,21,-390,38,0.00
2013-6-11,97,84,72,39,31,16,22,14,7,0.00,40.00,21,-143,35,0.00
2013-6-12,89,78,64,38,30,20,29,17,10,0.00,40.00,20,-104,34,0.00
2013-6-13,90,74,58,56,45,26,82,40,15,0.00,40.00,16,-76,30,0.00
2013-6-14,89,76,65,44,38,29,44,25,14,0.00,40.00,29,-107,44,0.00
2013-6-15,80,68,56,48,43,36,69,43,22,0.00,40.00,12,-286,19,0.00
2013-6-16,82,70,59,45,38,20,60,32,10,0.00,40.00,25,-116,44,0.00
2013-6-17,81,69,58,45,36,28,42,30,18,0.00,40.00,11,-141,17,0.00
2013-6-18,83,68,55,51,42,24,79,41,20,0.00,40.00,19,-102,27,0.00
2013-6-19,91,74,55,52,42,25,79,39,14,0.00,40.00,20,-80,40,0.00
2013-6-26,86,86,86,38,38,38,18,18,18,0.00,40.00,8,8,14,0.00
2013-7-20,-200,0,200,-100,-100,-100,0,0,100,0.00,40.00,15,15,25,0.00
2013-7-23,-200,0,200,37,37,37,25,25,25,0.00,40.00,8,8,0,0.00
2013-7-27,-200,0,200,44,44,44,41,40,39,0.00,40.00,11,11,20,0.00
2013-8-5,-200,0,200,46,46,46,44,42,41,0.00,40.00,10,9,16,0.00
2013-9-1,-200,0,200,52,52,52,67,66,66,0.00,40.00,6,5,0,0.00
2013-9-2,88,88,88,50,50,50,27,27,27,0.00,40.00,7,7,12,0.00
2013-9-3,90,90,90,50,50,50,26,26,26,0.00,40.00,8,8,0,0.00
2013-9-4,89,82,72,52,50,47,41,34,29,0.00,40.00,5,5,10,0.00
2013-9-5,88,78,68,52,51,47,52,41,29,0.00,40.00,8,-270,10,0.00
2013-9-10,62,24,59,55,53,50,86,82,67,0.00,40.00,4,-397,0,0.00
2013-9-11,-200,0,200,56,56,56,89,87,80,0.00,40.00,8,6,12,0.00
2013-9-12,62,3,62,58,58,54,87,84,79,0.00,40.00,11,6,32,0.00
2013-9-13,69,49,66,55,54,54,90,70,60,0.00,40.00,14,10,25,0.00
2013-9-14,61,15,59,55,41,-100,91,76,74,0.00,40.00,12,4,12,0.00
2013-10-16,-200,0,200,25,25,25,82,76,74,0.00,40.00,4,3,5,0.00
2013-10-17,46,46,46,24,24,24,42,42,42,0.00,40.00,5,5,9,0.00
2013-10-19,-200,0,200,-100,-100,-100,0,0,100,0.00,40.00,9,9,0,0.00
2013-10-28,-200,0,200,30,11,-100,100,95,91,0.00,40.00,111,108,0,0.00
2013-10-30,52,48,34,33,21,17,95,41,23,0.00,40.00,5,-748,6,0.00
2013-10-31,47,41,35,22,22,21,57,48,38,0.00,40.00,0,-999,9,0.00
2013-11-16,-200,0,200,-100,-100,-100,0,0,100,0.00,40.00,9,9,14,0.00
2013-11-17,50,50,50,13,13,13,20,20,20,0.00,40.00,8,8,13,0.00
2013-11-21,-200,0,200,12,12,12,87,85,81,0.00,40.00,12,10,19,0.00
2013-11-22,-200,0,200,15,15,15,50,50,50,0.00,40.00,1,1,0,0.00
2013-11-23,-200,0,200,10,4,-100,57,48,43,0.00,40.00,7,4,12,0.00
2013-11-24,-200,0,200,16,16,16,67,67,65,0.00,40.00,13,11,21,0.00